createdAt,value
2022-10-12T00:00:59.221Z,4.90
2022-10-12T00:03:26.090Z,4.90
2022-10-12T00:06:09.221Z,4.90
2022-10-12T00:08:37.607Z,4.90
2022-10-12T00:11:05.630Z,4.90
2022-10-12T00:13:32.750Z,4.90
2022-10-12T00:16:04.183Z,4.90
2022-10-12T00:18:32.114Z,4.90
2022-10-12T00:21:08.169Z,4.80
2022-10-12T00:23:37.431Z,4.80
2022-10-12T00:26:10.843Z,4.80
2022-10-12T00:28:37.606Z,4.70
2022-10-12T00:31:14.312Z,4.80
2022-10-12T00:33:41.845Z,4.80
2022-10-12T00:36:23.778Z,4.70
2022-10-12T00:38:52.320Z,4.70
2022-10-12T00:41:22.033Z,4.70
2022-10-12T00:43:52.904Z,4.60
2022-10-12T00:46:29.763Z,4.60
2022-10-12T00:49:05.681Z,4.60
2022-10-12T00:51:33.293Z,4.70
2022-10-12T00:54:09.592Z,4.60
2022-10-12T00:56:39.873Z,4.70
2022-10-12T00:59:11.125Z,4.60
2022-10-12T01:01:39.102Z,4.60
2022-10-12T01:04:07.104Z,4.60
2022-10-12T01:06:35.105Z,4.60
2022-10-12T01:09:02.565Z,4.60
2022-10-12T01:11:29.590Z,4.60
2022-10-12T01:13:57.636Z,4.60
2022-10-12T01:16:53.209Z,4.50
2022-10-12T01:19:54.986Z,4.60
2022-10-12T01:22:23.954Z,4.50
2022-10-12T01:25:07.023Z,4.60
2022-10-12T01:28:02.921Z,4.50
2022-10-12T01:30:36.445Z,4.50
2022-10-12T01:33:28.398Z,4.50
2022-10-12T01:36:10.734Z,4.60
2022-10-12T01:39:10.898Z,4.60
2022-10-12T01:41:47.178Z,4.60
2022-10-12T01:44:21.638Z,4.60
2022-10-12T01:46:48.725Z,4.60
2022-10-12T01:49:18.867Z,4.60
2022-10-12T01:52:10.761Z,4.60
2022-10-12T01:54:40.125Z,4.70
2022-10-12T01:57:12.536Z,4.60
2022-10-12T01:59:54.120Z,4.60
2022-10-12T02:02:37.950Z,4.60
2022-10-12T02:05:28.146Z,4.60
2022-10-12T02:08:03.509Z,4.60
2022-10-12T02:10:57.449Z,4.60
2022-10-12T02:13:27.532Z,4.60
2022-10-12T02:15:54.906Z,4.60
2022-10-12T02:18:23.158Z,4.60
2022-10-12T02:20:53.575Z,4.60
2022-10-12T02:23:24.143Z,4.60
2022-10-12T02:25:53.407Z,4.60
2022-10-12T02:28:24.031Z,4.50
2022-10-12T02:31:30.757Z,4.60
2022-10-12T02:34:22.833Z,4.60
2022-10-12T02:37:05.025Z,4.60
2022-10-12T02:39:42.266Z,4.50
2022-10-12T02:42:14.248Z,4.60
2022-10-12T02:44:43.244Z,4.60
2022-10-12T02:47:11.296Z,4.60
2022-10-12T02:49:39.826Z,4.60
2022-10-12T02:52:07.444Z,4.60
2022-10-12T02:54:34.350Z,4.60
2022-10-12T02:57:01.058Z,4.60
2022-10-12T02:59:28.473Z,4.60
2022-10-12T03:01:55.546Z,4.60
2022-10-12T03:04:22.302Z,4.60
2022-10-12T03:06:48.970Z,4.60
2022-10-12T03:09:15.583Z,4.60
2022-10-12T03:11:45.706Z,4.60
2022-10-12T03:14:14.736Z,4.60
2022-10-12T03:16:42.442Z,4.50
2022-10-12T03:19:09.807Z,4.50
2022-10-12T03:21:36.498Z,4.50
2022-10-12T03:24:03.340Z,4.50
2022-10-12T03:26:30.030Z,4.50
2022-10-12T03:28:57.252Z,4.40
2022-10-12T03:31:24.040Z,4.50
2022-10-12T03:33:50.850Z,4.40
2022-10-12T03:36:17.482Z,4.40
2022-10-12T03:38:44.225Z,4.40
2022-10-12T03:41:11.275Z,4.40
2022-10-12T03:43:37.906Z,4.40
2022-10-12T03:46:05.317Z,4.40
2022-10-12T03:48:32.020Z,4.40
2022-10-12T03:50:58.652Z,4.40
2022-10-12T03:53:25.272Z,4.50
2022-10-12T03:55:52.032Z,4.50
2022-10-12T03:58:18.862Z,4.50
2022-10-12T04:00:45.966Z,4.50
2022-10-12T04:03:13.122Z,4.60
2022-10-12T04:05:40.054Z,4.50
2022-10-12T04:08:06.851Z,4.50
2022-10-12T04:10:33.735Z,4.50
2022-10-12T04:13:01.080Z,4.60
2022-10-12T04:15:27.865Z,4.50
2022-10-12T04:17:54.667Z,4.60
2022-10-12T04:20:21.726Z,4.60
2022-10-12T04:22:48.541Z,4.60
2022-10-12T04:25:15.392Z,4.50
2022-10-12T04:27:42.564Z,4.50
2022-10-12T04:30:10.170Z,4.50
2022-10-12T04:32:36.986Z,4.40
2022-10-12T04:35:04.066Z,4.40
2022-10-12T04:37:30.893Z,4.40
2022-10-12T04:39:58.117Z,4.40
2022-10-12T04:42:25.500Z,4.30
2022-10-12T04:44:54.497Z,4.30
2022-10-12T04:47:21.367Z,4.20
2022-10-12T04:49:48.118Z,4.20
2022-10-12T04:52:14.951Z,4.20
2022-10-12T04:54:41.802Z,4.10
2022-10-12T04:57:08.666Z,4.20
2022-10-12T04:59:35.366Z,4.20
2022-10-12T05:02:01.981Z,4.20
2022-10-12T05:04:28.679Z,4.10
2022-10-12T05:06:55.343Z,4.10
2022-10-12T05:09:21.977Z,4.10
2022-10-12T05:11:48.657Z,4.10
2022-10-12T05:14:15.303Z,4.10
2022-10-12T05:16:41.979Z,4.10
2022-10-12T05:19:08.788Z,4.00
2022-10-12T05:21:35.475Z,4.00
2022-10-12T05:24:02.128Z,3.90
2022-10-12T05:26:28.845Z,3.90
2022-10-12T05:28:55.579Z,3.80
2022-10-12T05:31:22.268Z,3.80
2022-10-12T05:33:49.029Z,3.80
2022-10-12T05:36:16.098Z,3.70
2022-10-12T05:38:42.744Z,3.70
2022-10-12T05:41:09.411Z,3.70
2022-10-12T05:43:36.643Z,3.60
2022-10-12T05:46:03.681Z,3.60
2022-10-12T05:48:30.390Z,3.60
2022-10-12T05:50:57.007Z,3.60
2022-10-12T05:53:23.856Z,3.50
2022-10-12T05:55:58.864Z,3.50
2022-10-12T05:58:28.366Z,3.50
2022-10-12T06:00:55.636Z,3.50
2022-10-12T06:03:25.935Z,3.40
2022-10-12T06:05:52.729Z,3.40
2022-10-12T06:08:19.335Z,3.40
2022-10-12T06:10:49.713Z,3.30
2022-10-12T06:13:17.821Z,3.40
2022-10-12T06:15:48.454Z,3.30
2022-10-12T06:18:15.671Z,3.40
2022-10-12T06:20:47.417Z,3.40
2022-10-12T06:23:14.093Z,3.30
2022-10-12T06:25:41.091Z,3.40
2022-10-12T06:28:08.188Z,3.40
2022-10-12T06:30:34.845Z,3.40
2022-10-12T06:33:01.607Z,3.50
2022-10-12T06:35:28.214Z,3.60
2022-10-12T06:37:54.839Z,3.60
2022-10-12T06:40:21.539Z,3.70
2022-10-12T06:42:54.940Z,3.80
2022-10-12T06:45:25.064Z,3.80
2022-10-12T06:47:52.010Z,3.90
2022-10-12T06:50:18.608Z,4.00
2022-10-12T06:52:47.377Z,4.10
2022-10-12T06:55:13.985Z,4.10
2022-10-12T06:57:40.670Z,4.20
2022-10-12T07:00:08.737Z,4.30
2022-10-12T07:02:36.442Z,4.40
2022-10-12T07:05:04.510Z,4.60
2022-10-12T07:07:32.652Z,4.70
2022-10-12T07:09:59.968Z,4.90
2022-10-12T07:12:27.262Z,5.10
2022-10-12T07:14:58.310Z,5.30
2022-10-12T07:17:25.070Z,5.60
2022-10-12T07:19:51.777Z,5.80
2022-10-12T07:22:18.787Z,6.00
2022-10-12T07:24:45.477Z,6.30
2022-10-12T07:27:12.205Z,6.50
2022-10-12T07:29:39.437Z,6.60
2022-10-12T07:32:07.454Z,6.80
2022-10-12T07:34:34.725Z,6.90
2022-10-12T07:37:01.758Z,7.00
2022-10-12T07:39:28.552Z,7.20
2022-10-12T07:41:55.257Z,7.20
2022-10-12T07:44:22.635Z,7.30
2022-10-12T07:46:49.334Z,7.40
2022-10-12T07:49:16.361Z,7.50
2022-10-12T07:51:43.286Z,7.60
2022-10-12T07:54:10.444Z,7.70
2022-10-12T07:56:37.172Z,7.70
2022-10-12T07:59:04.147Z,7.70
2022-10-12T08:01:31.846Z,7.80
2022-10-12T08:04:01.870Z,7.80
2022-10-12T08:06:32.643Z,7.90
2022-10-12T08:09:00.324Z,8.00
2022-10-12T08:11:27.276Z,8.20
2022-10-12T08:13:54.979Z,8.30
2022-10-12T08:16:22.859Z,8.40
2022-10-12T08:18:49.582Z,8.50
2022-10-12T08:21:16.954Z,8.70
2022-10-12T08:23:46.457Z,8.90
2022-10-12T08:26:14.641Z,9.10
2022-10-12T08:28:41.726Z,9.20
2022-10-12T08:31:14.070Z,9.40
2022-10-12T08:33:41.328Z,9.50
2022-10-12T08:36:08.547Z,9.60
2022-10-12T08:38:38.775Z,9.80
2022-10-12T08:41:30.702Z,9.90
2022-10-12T08:44:19.321Z,10.10
2022-10-12T08:46:46.544Z,10.30
2022-10-12T08:49:18.092Z,10.50
2022-10-12T08:51:52.857Z,10.70
2022-10-12T08:54:22.953Z,10.90
2022-10-12T08:56:55.860Z,11.10
2022-10-12T08:59:22.936Z,11.10
2022-10-12T09:02:11.924Z,11.20
2022-10-12T09:05:17.178Z,11.30
2022-10-12T09:07:59.938Z,11.70
2022-10-12T09:10:49.624Z,11.80
2022-10-12T09:13:31.282Z,12.00
2022-10-12T09:16:13.801Z,12.30
2022-10-12T09:18:42.939Z,12.30
2022-10-12T09:21:21.389Z,12.40
2022-10-12T09:23:48.800Z,12.50
2022-10-12T09:26:36.370Z,12.50
2022-10-12T09:29:13.224Z,12.50
2022-10-12T09:32:04.667Z,12.30
2022-10-12T09:34:31.768Z,12.20
2022-10-12T09:36:58.667Z,12.20
2022-10-12T09:39:37.569Z,12.40
2022-10-12T09:42:04.512Z,12.80
2022-10-12T09:44:42.994Z,12.90
2022-10-12T09:47:21.718Z,13.10
2022-10-12T09:49:50.807Z,13.40
2022-10-12T09:52:21.817Z,13.70
2022-10-12T09:54:58.924Z,13.70
2022-10-12T09:57:34.049Z,13.80
2022-10-12T10:00:05.962Z,14.00
2022-10-12T10:02:36.140Z,14.20
2022-10-12T10:05:25.763Z,14.50
2022-10-12T10:07:52.880Z,14.60
2022-10-12T10:10:29.453Z,14.70
2022-10-12T10:12:59.027Z,14.80
2022-10-12T10:15:27.841Z,14.80
2022-10-12T10:17:57.393Z,14.90
2022-10-12T10:20:43.413Z,15.00
2022-10-12T10:23:25.632Z,15.20
2022-10-12T10:28:48.799Z,15.70
2022-10-12T10:31:17.054Z,15.90
2022-10-12T10:33:44.585Z,16.00
2022-10-12T10:36:22.184Z,16.10
2022-10-12T10:39:02.237Z,16.20
2022-10-12T10:41:38.149Z,16.40
2022-10-12T10:44:06.624Z,16.40
2022-10-12T10:46:36.045Z,16.20
2022-10-12T10:49:06.938Z,16.10
2022-10-12T10:51:52.793Z,16.30
2022-10-12T10:54:22.420Z,16.20
2022-10-12T10:56:56.320Z,16.30
2022-10-12T10:59:50.354Z,16.20
2022-10-12T11:02:23.341Z,16.10
2022-10-12T11:05:00.229Z,16.20
2022-10-12T11:07:33.553Z,16.10
2022-10-12T11:10:04.355Z,16.20
2022-10-12T11:12:40.528Z,16.30
2022-10-12T11:15:24.818Z,16.40
2022-10-12T11:17:58.910Z,16.30
2022-10-12T11:20:42.079Z,16.00
2022-10-12T11:23:21.330Z,16.00
2022-10-12T11:26:20.166Z,16.20
2022-10-12T11:28:47.367Z,16.40
2022-10-12T11:31:38.049Z,16.70
2022-10-12T11:34:13.267Z,16.60
2022-10-12T11:37:01.160Z,16.70
2022-10-12T11:39:36.829Z,16.70
2022-10-12T11:42:21.402Z,16.70
2022-10-12T11:44:49.034Z,16.70
2022-10-12T11:47:42.041Z,16.90
2022-10-12T11:50:35.320Z,16.90
2022-10-12T11:53:08.235Z,16.80
2022-10-12T11:55:37.937Z,16.90
2022-10-12T11:58:17.754Z,16.90
2022-10-12T12:01:18.250Z,16.80
2022-10-12T12:03:44.960Z,17.00
2022-10-12T12:06:29.841Z,17.30
2022-10-12T12:09:19.092Z,17.50
2022-10-12T12:11:46.162Z,17.60
2022-10-12T12:14:21.894Z,17.50
2022-10-12T12:16:49.693Z,17.60
2022-10-12T12:19:39.826Z,17.70
2022-10-12T12:22:13.027Z,17.50
2022-10-12T12:24:40.868Z,17.40
2022-10-12T12:27:38.261Z,17.60
2022-10-12T12:30:19.558Z,17.70
2022-10-12T12:32:49.151Z,17.40
2022-10-12T12:35:24.403Z,17.30
2022-10-12T12:38:02.622Z,17.20
2022-10-12T12:40:29.991Z,17.20
2022-10-12T12:43:28.762Z,17.00
2022-10-12T12:45:58.756Z,17.00
2022-10-12T12:48:43.805Z,17.00
2022-10-12T12:51:12.090Z,16.90
2022-10-12T12:53:51.689Z,17.00
2022-10-12T12:56:42.191Z,17.10
2022-10-12T12:59:48.866Z,17.10
2022-10-12T13:02:30.749Z,17.20
2022-10-12T13:05:35.811Z,17.30
2022-10-12T13:08:30.356Z,17.50
2022-10-12T13:11:29.169Z,17.70
2022-10-12T13:14:22.653Z,17.80
2022-10-12T13:20:26.431Z,18.00
2022-10-12T13:22:55.358Z,17.80
2022-10-12T13:25:24.831Z,17.70
2022-10-12T13:27:53.444Z,17.60
2022-10-12T13:30:39.381Z,17.50
2022-10-12T13:33:10.228Z,17.30
2022-10-12T13:35:55.643Z,17.20
2022-10-12T13:38:25.503Z,17.20
2022-10-12T13:41:02.507Z,17.10
2022-10-12T13:43:38.542Z,17.20
2022-10-12T13:46:05.686Z,17.00
2022-10-12T13:48:59.223Z,17.10
2022-10-12T13:51:26.373Z,16.90
2022-10-12T13:53:53.464Z,16.90
2022-10-12T13:56:23.661Z,16.90
2022-10-12T13:58:56.581Z,16.90
2022-10-12T14:01:23.254Z,16.90
2022-10-12T14:03:50.520Z,16.90
2022-10-12T14:06:29.533Z,17.00
2022-10-12T14:09:14.908Z,17.00
2022-10-12T14:11:42.606Z,17.00
2022-10-12T14:14:28.104Z,16.70
2022-10-12T14:16:54.966Z,16.70
2022-10-12T14:19:40.538Z,16.60
2022-10-12T14:22:07.948Z,16.50
2022-10-12T14:24:35.984Z,16.50
2022-10-12T14:27:04.940Z,16.60
2022-10-12T14:29:35.845Z,16.70
2022-10-12T14:32:06.785Z,16.80
2022-10-12T14:34:38.729Z,16.90
2022-10-12T14:37:14.574Z,16.90
2022-10-12T14:39:46.317Z,16.80
2022-10-12T14:42:34.308Z,16.80
2022-10-12T14:45:03.752Z,16.80
2022-10-12T14:47:39.061Z,16.70
2022-10-12T14:50:09.601Z,16.70
2022-10-12T14:52:43.842Z,16.50
2022-10-12T14:55:19.043Z,16.50
2022-10-12T14:57:46.092Z,16.50
2022-10-12T15:00:21.458Z,16.50
2022-10-12T15:02:49.656Z,16.60
2022-10-12T15:05:19.207Z,16.70
2022-10-12T15:07:46.847Z,16.70
2022-10-12T15:10:14.122Z,16.80
2022-10-12T15:12:41.472Z,16.80
2022-10-12T15:15:30.523Z,16.90
2022-10-12T15:17:58.209Z,16.90
2022-10-12T15:20:26.281Z,16.90
2022-10-12T15:22:52.927Z,16.90
2022-10-12T15:25:35.080Z,16.80
2022-10-12T15:28:05.674Z,16.60
2022-10-12T15:30:33.343Z,16.60
2022-10-12T15:33:00.093Z,16.50
2022-10-12T15:35:29.308Z,16.50
2022-10-12T15:37:56.490Z,16.30
2022-10-12T15:40:23.920Z,16.30
2022-10-12T15:42:52.962Z,16.10
2022-10-12T15:45:30.162Z,16.00
2022-10-12T15:47:56.933Z,16.10
2022-10-12T15:50:28.914Z,15.90
2022-10-12T15:52:56.765Z,15.70
2022-10-12T15:55:26.402Z,15.60
2022-10-12T15:57:53.631Z,15.40
2022-10-12T16:00:23.676Z,15.50
2022-10-12T16:02:50.520Z,15.40
2022-10-12T16:05:30.849Z,15.40
2022-10-12T16:07:58.209Z,15.30
2022-10-12T16:10:27.963Z,15.20
2022-10-12T16:12:54.966Z,15.20
2022-10-12T16:15:25.726Z,15.30
2022-10-12T16:17:52.686Z,15.30
2022-10-12T16:20:19.534Z,15.30
2022-10-12T16:22:46.796Z,15.40
2022-10-12T16:25:15.181Z,15.20
2022-10-12T16:27:42.013Z,15.20
2022-10-12T16:30:09.871Z,15.00
2022-10-12T16:32:36.527Z,14.90
2022-10-12T16:35:04.058Z,14.80
2022-10-12T16:37:30.987Z,14.80
2022-10-12T16:39:57.689Z,14.80
2022-10-12T16:42:24.610Z,14.70
2022-10-12T16:44:51.315Z,14.50
2022-10-12T16:47:18.347Z,14.50
2022-10-12T16:49:45.320Z,14.30
2022-10-12T16:52:12.145Z,14.20
2022-10-12T16:54:38.898Z,14.00
2022-10-12T16:57:06.273Z,13.90
2022-10-12T16:59:32.868Z,13.80
2022-10-12T17:01:59.501Z,13.60
2022-10-12T17:04:26.321Z,13.50
2022-10-12T17:06:54.240Z,13.40
2022-10-12T17:09:21.243Z,13.30
2022-10-12T17:11:48.718Z,13.30
2022-10-12T17:14:16.842Z,13.20
2022-10-12T17:16:49.974Z,13.10
2022-10-12T17:19:39.753Z,13.00
2022-10-12T17:22:09.213Z,12.90
2022-10-12T17:24:38.689Z,12.90
2022-10-12T17:27:07.454Z,12.80
2022-10-12T17:29:36.463Z,12.70
2022-10-12T17:32:04.433Z,12.60
2022-10-12T17:34:34.650Z,12.50
2022-10-12T17:37:03.075Z,12.40
2022-10-12T17:39:33.358Z,12.40
2022-10-12T17:42:00.122Z,12.30
2022-10-12T17:44:26.759Z,12.20
2022-10-12T17:46:53.737Z,12.20
2022-10-12T17:49:24.708Z,12.10
2022-10-12T17:51:51.726Z,12.00
2022-10-12T17:54:19.683Z,11.80
2022-10-12T17:56:46.860Z,11.80
2022-10-12T17:59:15.953Z,11.70
2022-10-12T18:01:43.070Z,11.60
2022-10-12T18:04:11.557Z,11.50
2022-10-12T18:06:38.926Z,11.40
2022-10-12T18:09:06.676Z,11.40
2022-10-12T18:11:33.732Z,11.30
2022-10-12T18:14:00.527Z,11.10
2022-10-12T18:16:29.796Z,11.10
2022-10-12T18:18:58.949Z,11.00
2022-10-12T18:21:27.510Z,11.00
2022-10-12T18:23:54.682Z,10.80
2022-10-12T18:26:22.233Z,10.80
2022-10-12T18:28:50.613Z,10.70
2022-10-12T18:31:23.647Z,10.60
2022-10-12T18:33:51.145Z,10.40
2022-10-12T18:36:18.581Z,10.20
2022-10-12T18:38:45.254Z,10.20
2022-10-12T18:41:18.139Z,10.20
2022-10-12T18:43:45.012Z,10.10
2022-10-12T18:46:13.962Z,10.20
2022-10-12T18:48:40.971Z,10.10
2022-10-12T18:51:19.490Z,10.10
2022-10-12T18:53:47.303Z,10.00
2022-10-12T18:56:14.075Z,10.00
2022-10-12T18:58:42.192Z,10.00
2022-10-12T19:01:18.491Z,9.90
2022-10-12T19:03:45.585Z,9.90
2022-10-12T19:06:21.342Z,9.80
2022-10-12T19:08:48.332Z,9.70
2022-10-12T19:11:18.977Z,9.70
2022-10-12T19:13:51.838Z,9.60
2022-10-12T19:16:18.702Z,9.60
2022-10-12T19:18:45.346Z,9.60
2022-10-12T19:21:18.354Z,9.50
2022-10-12T19:23:45.740Z,9.40
2022-10-12T19:26:18.739Z,9.40
2022-10-12T19:28:46.417Z,9.30
2022-10-12T19:31:16.047Z,9.20
2022-10-12T19:33:43.097Z,9.10
2022-10-12T19:36:11.890Z,9.00
2022-10-12T19:38:39.165Z,9.00
2022-10-12T19:41:06.319Z,9.00
2022-10-12T19:43:34.419Z,9.00
2022-10-12T19:46:07.323Z,9.00
2022-10-12T19:48:37.902Z,8.90
2022-10-12T19:51:07.566Z,8.80
2022-10-12T19:53:34.818Z,8.80
2022-10-12T19:56:04.395Z,8.80
2022-10-12T19:58:32.094Z,8.70
2022-10-12T20:01:08.467Z,8.70
2022-10-12T20:03:35.979Z,8.60
2022-10-12T20:06:06.012Z,8.60
2022-10-12T20:08:33.275Z,8.50
2022-10-12T20:11:00.184Z,8.40
2022-10-12T20:13:26.863Z,8.40
2022-10-12T20:15:54.945Z,8.40
2022-10-12T20:18:22.717Z,8.30
2022-10-12T20:20:50.203Z,8.30
2022-10-12T20:23:17.759Z,8.20
2022-10-12T20:25:48.693Z,8.20
2022-10-12T20:28:15.993Z,8.20
2022-10-12T20:30:42.686Z,8.10
2022-10-12T20:33:10.153Z,8.10
2022-10-12T20:35:36.895Z,8.00
2022-10-12T20:38:04.107Z,8.00
2022-10-12T20:40:30.729Z,8.00
2022-10-12T20:42:57.326Z,7.90
2022-10-12T20:45:23.993Z,7.90
2022-10-12T20:47:50.629Z,7.80
2022-10-12T20:50:17.697Z,7.80
2022-10-12T20:52:44.385Z,7.80
2022-10-12T20:55:11.249Z,7.70
2022-10-12T20:57:37.919Z,7.70
2022-10-12T21:00:05.830Z,7.70
2022-10-12T21:02:33.526Z,7.70
2022-10-12T21:05:00.157Z,7.60
2022-10-12T21:07:26.852Z,7.60
2022-10-12T21:09:53.487Z,7.50
2022-10-12T21:12:20.574Z,7.50
2022-10-12T21:14:47.645Z,7.50
2022-10-12T21:17:14.293Z,7.40
2022-10-12T21:19:41.083Z,7.40
2022-10-12T21:22:07.900Z,7.50
2022-10-12T21:24:34.700Z,7.50
2022-10-12T21:27:01.350Z,7.50
2022-10-12T21:29:28.073Z,7.50
2022-10-12T21:31:54.831Z,7.50
2022-10-12T21:34:21.489Z,7.50
2022-10-12T21:36:48.178Z,7.50
2022-10-12T21:39:16.720Z,7.50
2022-10-12T21:41:44.277Z,7.50
2022-10-12T21:44:11.909Z,7.50
2022-10-12T21:46:38.896Z,7.60
2022-10-12T21:49:09.201Z,7.60
2022-10-12T21:51:37.020Z,7.60
2022-10-12T21:54:05.502Z,7.60
2022-10-12T21:56:35.164Z,7.60
2022-10-12T21:59:02.730Z,7.60
2022-10-12T22:01:38.651Z,7.60
2022-10-12T22:04:07.557Z,7.60
2022-10-12T22:06:35.356Z,7.60
2022-10-12T22:09:05.809Z,7.70
2022-10-12T22:11:34.186Z,7.70
2022-10-12T22:14:05.021Z,7.80
2022-10-12T22:16:32.330Z,7.80
2022-10-12T22:19:00.937Z,7.80
2022-10-12T22:21:29.676Z,7.80
2022-10-12T22:23:56.419Z,7.90
2022-10-12T22:26:24.241Z,7.90
2022-10-12T22:28:51.269Z,7.90
2022-10-12T22:31:19.969Z,7.90
2022-10-12T22:33:46.884Z,7.90
2022-10-12T22:36:14.969Z,7.90
2022-10-12T22:38:42.192Z,8.00
2022-10-12T22:41:15.407Z,8.00
2022-10-12T22:43:43.209Z,8.00
2022-10-12T22:46:10.692Z,8.00
2022-10-12T22:48:37.789Z,8.00
2022-10-12T22:51:05.742Z,8.00
2022-10-12T22:53:33.558Z,7.90
2022-10-12T22:56:01.142Z,8.00
2022-10-12T22:58:28.781Z,8.00
2022-10-12T23:01:13.440Z,8.10
2022-10-12T23:03:41.126Z,8.10
2022-10-12T23:06:09.019Z,8.10
2022-10-12T23:08:36.412Z,8.10
2022-10-12T23:11:05.487Z,8.10
2022-10-12T23:13:33.408Z,8.20
2022-10-12T23:16:12.514Z,8.20
2022-10-12T23:18:40.021Z,8.20
2022-10-12T23:21:09.514Z,8.20
2022-10-12T23:23:37.688Z,8.20
2022-10-12T23:26:08.654Z,8.20
2022-10-12T23:28:35.493Z,8.30
2022-10-12T23:31:07.376Z,8.30
2022-10-12T23:33:34.339Z,8.40
2022-10-12T23:36:04.133Z,8.40
2022-10-12T23:38:32.574Z,8.40
2022-10-12T23:40:59.240Z,8.40
2022-10-12T23:43:26.844Z,8.40
2022-10-12T23:45:54.396Z,8.40
2022-10-12T23:48:21.735Z,8.40
2022-10-12T23:50:48.406Z,8.40
2022-10-12T23:53:15.258Z,8.40
2022-10-12T23:55:42.121Z,8.40
2022-10-12T23:58:08.872Z,8.50
